createdAt,value
2017-12-26T00:02:22.879Z,72.40
2017-12-26T00:04:50.466Z,62.20
2017-12-26T00:07:18.011Z,66.37
2017-12-26T00:09:45.643Z,71.47
2017-12-26T00:12:13.222Z,64.43
2017-12-26T00:14:40.781Z,74.33
2017-12-26T00:17:08.399Z,64.33
2017-12-26T00:19:35.963Z,50.27
2017-12-26T00:22:03.627Z,70.67
2017-12-26T00:24:31.247Z,55.03
2017-12-26T00:26:58.821Z,63.97
2017-12-26T00:29:26.391Z,90.47
2017-12-26T00:31:54.037Z,61.43
2017-12-26T00:34:21.636Z,50.83
2017-12-26T00:36:49.223Z,58.07
2017-12-26T00:39:16.815Z,48.37
2017-12-26T00:41:44.395Z,51.13
2017-12-26T00:44:11.960Z,67.67
2017-12-26T00:46:39.559Z,55.77
2017-12-26T00:49:07.124Z,54.30
2017-12-26T00:51:34.713Z,45.03
2017-12-26T00:54:02.338Z,49.97
2017-12-26T00:56:29.976Z,44.00
2017-12-26T00:58:57.588Z,36.67
2017-12-26T01:01:25.202Z,35.33
2017-12-26T01:03:52.863Z,34.83
2017-12-26T01:06:20.476Z,38.10
2017-12-26T01:08:48.065Z,35.97
2017-12-26T01:11:15.694Z,33.03
2017-12-26T01:13:43.294Z,34.13
2017-12-26T01:16:10.859Z,31.73
2017-12-26T01:18:38.478Z,33.03
2017-12-26T01:21:06.053Z,37.00
2017-12-26T01:23:33.629Z,40.37
2017-12-26T01:26:01.231Z,34.57
2017-12-26T01:28:28.800Z,37.17
2017-12-26T01:30:56.411Z,36.73
2017-12-26T01:33:24.540Z,45.83
2017-12-26T01:35:52.130Z,56.83
2017-12-26T01:38:19.706Z,78.20
2017-12-26T01:40:47.346Z,82.23
2017-12-26T01:43:14.960Z,48.33
2017-12-26T01:45:42.534Z,51.87
2017-12-26T01:48:10.372Z,52.30
2017-12-26T01:50:37.959Z,50.93
2017-12-26T01:53:05.574Z,68.63
2017-12-26T01:55:33.205Z,70.20
2017-12-26T01:58:00.790Z,62.37
2017-12-26T02:00:28.391Z,47.93
2017-12-26T02:02:55.994Z,50.10
2017-12-26T02:05:24.498Z,54.40
2017-12-26T02:07:52.201Z,61.87
2017-12-26T02:10:19.828Z,54.50
2017-12-26T02:12:47.408Z,53.17
2017-12-26T02:15:15.066Z,58.70
2017-12-26T02:17:42.700Z,55.57
2017-12-26T02:20:10.410Z,45.33
2017-12-26T02:22:37.994Z,47.67
2017-12-26T02:25:05.614Z,58.23
2017-12-26T02:27:33.200Z,49.70
2017-12-26T02:30:00.792Z,69.73
2017-12-26T02:32:28.419Z,64.23
2017-12-26T02:34:56.006Z,59.33
2017-12-26T02:37:23.602Z,52.77
2017-12-26T02:39:51.198Z,49.67
2017-12-26T02:42:18.771Z,51.30
2017-12-26T02:44:46.342Z,48.50
2017-12-26T02:47:13.969Z,43.00
2017-12-26T02:49:41.541Z,51.77
2017-12-26T02:52:09.145Z,42.23
2017-12-26T02:54:36.791Z,43.27
2017-12-26T02:57:04.356Z,40.53
2017-12-26T02:59:31.926Z,45.00
2017-12-26T03:01:59.538Z,43.13
2017-12-26T03:04:27.099Z,56.03
2017-12-26T03:06:54.666Z,39.63
2017-12-26T03:09:22.286Z,46.67
2017-12-26T03:11:49.865Z,40.53
2017-12-26T03:14:17.435Z,46.30
2017-12-26T03:16:45.066Z,48.93
2017-12-26T03:19:12.645Z,51.40
2017-12-26T03:21:40.216Z,41.70
2017-12-26T03:24:07.867Z,42.53
2017-12-26T03:26:35.450Z,42.63
2017-12-26T03:29:03.037Z,45.83
2017-12-26T03:31:30.658Z,45.60
2017-12-26T03:33:58.230Z,44.03
2017-12-26T03:36:25.971Z,35.53
2017-12-26T03:38:53.601Z,40.00
2017-12-26T03:41:21.212Z,41.77
2017-12-26T03:43:48.809Z,47.70
2017-12-26T03:46:16.463Z,49.73
2017-12-26T03:48:44.053Z,35.50
2017-12-26T03:51:11.630Z,43.80
2017-12-26T03:53:39.247Z,41.80
2017-12-26T03:56:06.853Z,46.33
2017-12-26T03:58:34.443Z,50.87
2017-12-26T04:01:02.084Z,35.90
2017-12-26T04:03:29.699Z,49.30
2017-12-26T04:05:57.317Z,38.37
2017-12-26T04:08:24.982Z,47.03
2017-12-26T04:10:52.576Z,34.50
2017-12-26T04:13:20.168Z,39.93
2017-12-26T04:15:47.786Z,38.70
2017-12-26T04:18:15.402Z,41.33
2017-12-26T04:20:42.974Z,36.87
2017-12-26T04:23:10.581Z,35.83
2017-12-26T04:25:38.161Z,37.13
2017-12-26T04:28:05.760Z,38.23
2017-12-26T04:30:33.374Z,46.53
2017-12-26T04:33:00.948Z,42.97
2017-12-26T04:35:28.537Z,50.20
2017-12-26T04:37:56.182Z,41.50
2017-12-26T04:40:23.774Z,36.13
2017-12-26T04:42:51.349Z,34.50
2017-12-26T04:45:18.970Z,45.00
2017-12-26T04:47:46.559Z,38.83
2017-12-26T04:50:14.132Z,39.90
2017-12-26T04:52:41.763Z,38.77
2017-12-26T04:55:09.353Z,48.33
2017-12-26T04:57:36.996Z,42.80
2017-12-26T05:00:04.619Z,38.33
2017-12-26T05:02:32.332Z,51.20
2017-12-26T05:04:59.902Z,46.27
2017-12-26T05:07:27.538Z,45.80
2017-12-26T05:09:55.120Z,45.73
2017-12-26T05:12:22.704Z,42.97
2017-12-26T05:14:50.384Z,44.43
2017-12-26T05:17:17.978Z,41.97
2017-12-26T05:19:45.553Z,40.40
2017-12-26T05:22:13.163Z,41.40
2017-12-26T05:24:40.759Z,33.47
2017-12-26T05:27:08.345Z,41.73
2017-12-26T05:29:35.965Z,35.30
2017-12-26T05:32:03.542Z,49.80
2017-12-26T05:34:31.124Z,35.83
2017-12-26T05:36:58.751Z,40.50
2017-12-26T05:39:26.338Z,42.07
2017-12-26T05:41:53.920Z,34.63
2017-12-26T05:44:21.527Z,39.50
2017-12-26T05:46:49.109Z,39.70
2017-12-26T05:49:16.689Z,33.50
2017-12-26T05:51:44.298Z,37.47
2017-12-26T05:54:11.891Z,40.67
2017-12-26T05:56:39.682Z,32.23
2017-12-26T05:59:07.321Z,29.27
2017-12-26T06:01:34.896Z,32.90
2017-12-26T06:04:02.486Z,29.30
2017-12-26T06:06:30.117Z,32.50
2017-12-26T06:08:57.709Z,44.20
2017-12-26T06:11:25.307Z,52.57
2017-12-26T06:13:53.082Z,45.37
2017-12-26T06:16:20.664Z,40.37
2017-12-26T06:18:48.256Z,52.00
2017-12-26T06:21:15.844Z,38.00
2017-12-26T06:23:43.424Z,34.60
2017-12-26T06:26:10.990Z,42.17
2017-12-26T06:28:38.601Z,37.97
2017-12-26T06:31:06.156Z,35.40
2017-12-26T06:33:33.729Z,44.03
2017-12-26T06:36:01.350Z,47.43
2017-12-26T06:38:28.910Z,51.87
2017-12-26T06:40:56.469Z,56.17
2017-12-26T06:43:24.089Z,51.83
2017-12-26T06:45:51.669Z,61.20
2017-12-26T06:48:19.226Z,63.53
2017-12-26T06:50:46.828Z,60.53
2017-12-26T06:53:14.425Z,40.60
2017-12-26T06:55:41.995Z,42.50
2017-12-26T06:58:09.590Z,37.60
2017-12-26T07:00:37.150Z,39.03
2017-12-26T07:03:04.738Z,36.50
2017-12-26T07:05:32.325Z,36.70
2017-12-26T07:07:59.897Z,29.27
2017-12-26T07:10:27.466Z,34.40
2017-12-26T07:12:55.128Z,30.73
2017-12-26T07:15:22.700Z,32.27
2017-12-26T07:17:50.259Z,27.37
2017-12-26T07:20:23.261Z,29.23
2017-12-26T07:22:50.827Z,37.20
2017-12-26T07:25:18.385Z,29.03
2017-12-26T07:27:46.024Z,29.87
2017-12-26T07:30:13.592Z,35.53
2017-12-26T07:32:41.171Z,31.03
2017-12-26T07:35:08.773Z,31.73
2017-12-26T07:37:36.325Z,31.33
2017-12-26T07:40:03.907Z,37.57
2017-12-26T07:42:31.519Z,53.00
2017-12-26T07:44:59.126Z,47.73
2017-12-26T07:47:26.705Z,69.73
2017-12-26T07:49:54.312Z,81.53
2017-12-26T07:52:21.877Z,71.77
2017-12-26T07:54:49.427Z,59.10
2017-12-26T07:57:17.046Z,43.13
2017-12-26T07:59:44.591Z,45.23
2017-12-26T08:02:12.158Z,55.73
2017-12-26T08:04:39.770Z,46.37
2017-12-26T08:07:07.337Z,58.07
2017-12-26T08:09:34.896Z,60.77
2017-12-26T08:12:02.508Z,44.70
2017-12-26T08:14:30.170Z,41.13
2017-12-26T08:16:57.752Z,35.87
2017-12-26T08:19:25.353Z,37.20
2017-12-26T08:21:52.913Z,46.50
2017-12-26T08:24:20.480Z,48.40
2017-12-26T08:26:48.102Z,44.67
2017-12-26T08:29:15.657Z,58.40
2017-12-26T08:31:43.227Z,70.67
2017-12-26T08:34:10.826Z,52.87
2017-12-26T08:36:38.406Z,62.83
2017-12-26T08:39:05.982Z,67.20
2017-12-26T08:41:33.580Z,72.83
2017-12-26T08:44:01.157Z,45.40
2017-12-26T08:46:28.732Z,42.97
2017-12-26T08:48:56.342Z,33.73
2017-12-26T08:51:23.915Z,22.83
2017-12-26T08:53:51.487Z,29.10
2017-12-26T08:56:19.092Z,20.07
2017-12-26T08:58:46.664Z,20.90
2017-12-26T09:01:14.231Z,28.23
2017-12-26T09:03:41.858Z,17.13
2017-12-26T09:06:09.441Z,18.70
2017-12-26T09:08:37.009Z,25.40
2017-12-26T09:11:04.614Z,20.13
2017-12-26T09:13:32.178Z,23.03
2017-12-26T09:15:59.750Z,21.23
2017-12-26T09:18:27.365Z,27.13
2017-12-26T09:20:54.935Z,25.30
2017-12-26T09:23:22.495Z,20.53
2017-12-26T09:25:50.106Z,21.80
2017-12-26T09:28:17.658Z,37.73
2017-12-26T09:30:45.548Z,33.47
2017-12-26T09:33:14.005Z,47.13
2017-12-26T09:35:41.935Z,24.97
2017-12-26T09:38:11.211Z,33.60
2017-12-26T09:40:39.579Z,23.17
2017-12-26T09:43:08.112Z,23.63
2017-12-26T09:45:36.742Z,37.33
2017-12-26T09:48:04.583Z,29.70
2017-12-26T09:50:32.159Z,67.63
2017-12-26T09:52:59.746Z,36.47
2017-12-26T09:55:27.375Z,43.63
2017-12-26T09:57:54.950Z,41.77
2017-12-26T10:00:22.529Z,37.13
2017-12-26T10:02:50.127Z,28.77
2017-12-26T10:05:17.706Z,28.43
2017-12-26T10:07:45.271Z,26.23
2017-12-26T10:10:12.880Z,26.53
2017-12-26T10:12:40.443Z,37.80
2017-12-26T10:15:08.009Z,36.60
2017-12-26T10:17:35.621Z,31.63
2017-12-26T10:20:03.176Z,30.37
2017-12-26T10:22:30.740Z,29.53
2017-12-26T10:24:58.352Z,22.37
2017-12-26T10:27:25.912Z,27.23
2017-12-26T10:29:53.494Z,25.00
2017-12-26T10:32:21.108Z,30.47
2017-12-26T10:34:48.667Z,23.27
2017-12-26T10:37:16.240Z,22.97
2017-12-26T10:39:43.842Z,32.57
2017-12-26T10:42:11.414Z,31.10
2017-12-26T10:44:38.993Z,22.60
2017-12-26T10:47:06.610Z,34.03
2017-12-26T10:49:34.185Z,23.80
2017-12-26T10:52:01.762Z,20.93
2017-12-26T10:54:29.351Z,19.90
2017-12-26T10:56:56.913Z,37.90
2017-12-26T10:59:24.463Z,22.00
2017-12-26T11:01:52.068Z,18.77
2017-12-26T11:04:19.633Z,17.23
2017-12-26T11:06:47.199Z,22.37
2017-12-26T11:09:14.809Z,32.33
2017-12-26T11:11:42.389Z,26.60
2017-12-26T11:14:10.020Z,35.67
2017-12-26T11:16:37.616Z,27.43
2017-12-26T11:19:05.174Z,43.33
2017-12-26T11:21:32.734Z,24.50
2017-12-26T11:24:00.328Z,25.97
2017-12-26T11:26:27.900Z,38.10
2017-12-26T11:28:55.462Z,26.60
2017-12-26T11:31:23.250Z,25.93
2017-12-26T11:33:50.836Z,28.70
2017-12-26T11:36:18.400Z,22.97
2017-12-26T11:38:45.992Z,42.00
2017-12-26T11:41:13.544Z,21.43
2017-12-26T11:43:41.119Z,14.60
2017-12-26T11:46:08.743Z,17.57
2017-12-26T11:48:36.305Z,9.83
2017-12-26T11:51:03.882Z,11.07
2017-12-26T11:53:31.506Z,9.10
2017-12-26T11:55:59.078Z,17.50
2017-12-26T11:58:26.636Z,18.30
2017-12-26T12:00:54.252Z,26.03
2017-12-26T12:03:21.795Z,5.47
2017-12-26T12:05:49.386Z,9.10
2017-12-26T12:08:16.971Z,5.67
2017-12-26T12:10:44.531Z,8.20
2017-12-26T12:13:12.098Z,5.97
2017-12-26T12:15:39.702Z,11.23
2017-12-26T12:18:07.295Z,12.43
2017-12-26T12:20:34.867Z,7.50
2017-12-26T12:23:02.450Z,15.83
2017-12-26T12:25:30.041Z,13.10
2017-12-26T12:27:57.665Z,11.77
2017-12-26T12:30:25.267Z,8.53
2017-12-26T12:32:52.839Z,6.80
2017-12-26T12:35:20.558Z,8.27
2017-12-26T12:37:48.164Z,15.83
2017-12-26T12:40:15.743Z,21.73
2017-12-26T12:42:43.313Z,9.40
2017-12-26T12:45:10.915Z,6.90
2017-12-26T12:47:38.494Z,9.10
2017-12-26T12:50:06.060Z,20.33
2017-12-26T12:52:33.661Z,14.87
2017-12-26T12:55:01.233Z,32.97
2017-12-26T12:57:28.802Z,12.87
2017-12-26T12:59:56.377Z,11.63
2017-12-26T13:02:23.942Z,13.93
2017-12-26T13:04:51.514Z,17.67
2017-12-26T13:07:19.119Z,9.00
2017-12-26T13:09:46.674Z,11.87
2017-12-26T13:12:14.277Z,17.00
2017-12-26T13:14:41.875Z,18.50
2017-12-26T13:17:09.437Z,15.10
2017-12-26T13:19:37.004Z,10.80
2017-12-26T13:22:04.587Z,15.40
2017-12-26T13:24:32.231Z,10.33
2017-12-26T13:26:59.783Z,25.93
2017-12-26T13:29:27.392Z,12.03
2017-12-26T13:31:54.940Z,11.83
2017-12-26T13:34:22.521Z,23.20
2017-12-26T13:36:50.163Z,22.93
2017-12-26T13:39:17.698Z,28.63
2017-12-26T13:41:45.257Z,33.93
2017-12-26T13:44:12.862Z,22.17
2017-12-26T13:46:40.419Z,15.10
2017-12-26T13:49:07.996Z,13.30
2017-12-26T13:51:35.618Z,11.80
2017-12-26T13:54:03.198Z,5.80
2017-12-26T13:56:30.777Z,7.27
2017-12-26T13:58:58.379Z,8.43
2017-12-26T14:01:25.949Z,10.03
2017-12-26T14:03:53.503Z,9.30
2017-12-26T14:06:21.105Z,12.60
2017-12-26T14:08:48.680Z,16.90
2017-12-26T14:11:16.289Z,22.83
2017-12-26T14:13:44.018Z,22.90
2017-12-26T14:16:11.585Z,38.30
2017-12-26T14:18:39.142Z,32.60
2017-12-26T14:21:06.739Z,29.27
2017-12-26T14:23:34.284Z,32.80
2017-12-26T14:26:01.858Z,25.10
2017-12-26T14:28:29.505Z,40.67
2017-12-26T14:30:57.089Z,20.93
2017-12-26T14:33:24.693Z,17.30
2017-12-26T14:35:52.291Z,28.63
2017-12-26T14:38:19.870Z,25.60
2017-12-26T14:40:47.512Z,12.03
2017-12-26T14:43:15.111Z,18.83
2017-12-26T14:45:42.685Z,20.97
2017-12-26T14:48:10.270Z,14.13
2017-12-26T14:50:37.874Z,44.60
2017-12-26T14:53:05.824Z,29.13
2017-12-26T14:55:33.480Z,30.43
2017-12-26T14:58:01.072Z,55.67
2017-12-26T15:00:28.657Z,53.03
2017-12-26T15:02:56.236Z,23.67
2017-12-26T15:05:23.828Z,20.47
2017-12-26T15:07:51.404Z,52.73
2017-12-26T15:10:18.970Z,43.72
2017-12-26T15:12:46.572Z,50.23
2017-12-26T15:15:14.127Z,43.30
2017-12-26T15:17:41.721Z,29.13
2017-12-26T15:20:09.343Z,31.33
2017-12-26T15:22:36.939Z,39.93
2017-12-26T15:25:04.545Z,35.03
2017-12-26T15:27:32.175Z,67.73
2017-12-26T15:29:59.738Z,60.17
2017-12-26T15:32:27.313Z,70.13
2017-12-26T15:34:54.922Z,53.97
2017-12-26T15:37:22.491Z,114.10
2017-12-26T15:39:50.044Z,88.40
2017-12-26T15:42:17.638Z,92.10
2017-12-26T15:44:45.213Z,96.07
2017-12-26T15:47:12.767Z,60.73
2017-12-26T15:49:40.369Z,33.97
2017-12-26T15:52:07.917Z,30.03
2017-12-26T15:54:35.531Z,42.60
2017-12-26T15:57:03.149Z,35.80
2017-12-26T15:59:30.742Z,54.53
2017-12-26T16:01:58.281Z,38.10
2017-12-26T16:04:25.887Z,43.33
2017-12-26T16:06:53.478Z,38.77
2017-12-26T16:09:21.143Z,41.80
2017-12-26T16:11:48.756Z,43.37
2017-12-26T16:14:16.329Z,38.30
2017-12-26T16:16:43.885Z,41.57
2017-12-26T16:19:11.480Z,42.53
2017-12-26T16:21:39.042Z,46.50
2017-12-26T16:24:06.676Z,57.20
2017-12-26T16:26:34.289Z,41.07
2017-12-26T16:29:01.856Z,42.40
2017-12-26T16:31:29.415Z,41.77
2017-12-26T16:33:57.012Z,36.63
2017-12-26T16:36:24.565Z,48.07
2017-12-26T16:38:52.129Z,38.43
2017-12-26T16:41:19.753Z,41.87
2017-12-26T16:43:47.333Z,54.57
2017-12-26T16:46:14.910Z,69.00
2017-12-26T16:48:42.522Z,63.07
2017-12-26T16:51:10.079Z,88.67
2017-12-26T16:53:37.644Z,48.50
2017-12-26T16:56:05.246Z,52.43
2017-12-26T16:58:32.808Z,113.90
2017-12-26T17:01:00.374Z,76.60
2017-12-26T17:03:28.149Z,65.80
2017-12-26T17:05:55.728Z,60.73
2017-12-26T17:08:23.305Z,81.47
2017-12-26T17:10:51.011Z,58.60
2017-12-26T17:13:18.648Z,78.87
2017-12-26T17:15:46.208Z,84.47
2017-12-26T17:18:13.829Z,37.43
2017-12-26T17:20:41.404Z,54.87
2017-12-26T17:23:08.981Z,72.07
2017-12-26T17:25:36.637Z,60.57
2017-12-26T17:28:04.237Z,62.07
2017-12-26T17:30:31.807Z,57.17
2017-12-26T17:32:59.401Z,53.73
2017-12-26T17:35:26.951Z,42.90
2017-12-26T17:37:54.518Z,56.47
2017-12-26T17:40:22.094Z,47.47
2017-12-26T17:42:49.662Z,48.23
2017-12-26T17:45:17.473Z,49.90
2017-12-26T17:47:45.134Z,54.23
2017-12-26T17:50:12.778Z,39.97
2017-12-26T17:52:40.342Z,55.57
2017-12-26T17:55:07.955Z,43.20
2017-12-26T17:57:35.507Z,44.17
2017-12-26T18:00:03.115Z,43.63
2017-12-26T18:02:30.721Z,50.00
2017-12-26T18:04:58.285Z,60.80
2017-12-26T18:07:25.868Z,75.00
2017-12-26T18:09:53.578Z,52.80
2017-12-26T18:12:21.152Z,42.70
2017-12-26T18:14:48.849Z,41.13
2017-12-26T18:17:16.436Z,45.53
2017-12-26T18:19:44.038Z,42.57
2017-12-26T18:22:11.630Z,48.50
2017-12-26T18:24:39.237Z,37.77
2017-12-26T18:27:06.826Z,44.90
2017-12-26T18:29:34.415Z,43.53
2017-12-26T18:32:02.216Z,53.07
2017-12-26T18:34:29.765Z,36.87
2017-12-26T18:36:57.340Z,43.85
2017-12-26T18:39:24.957Z,35.00
2017-12-26T18:41:52.544Z,37.50
2017-12-26T18:44:20.114Z,66.87
2017-12-26T18:46:47.730Z,112.93
2017-12-26T18:49:15.312Z,55.93
2017-12-26T18:51:42.877Z,35.30
2017-12-26T18:54:10.484Z,31.00
2017-12-26T18:56:38.056Z,27.20
2017-12-26T18:59:05.619Z,37.43
2017-12-26T19:01:33.216Z,59.03
2017-12-26T19:04:00.772Z,56.53
2017-12-26T19:06:28.337Z,41.73
2017-12-26T19:08:55.941Z,59.00
2017-12-26T19:11:23.496Z,63.00
2017-12-26T19:13:51.135Z,47.50
2017-12-26T19:16:18.754Z,93.33
2017-12-26T19:18:46.351Z,88.20
2017-12-26T19:21:13.905Z,34.07
2017-12-26T19:23:41.542Z,27.40
2017-12-26T19:26:09.115Z,43.73
2017-12-26T19:28:36.677Z,32.80
2017-12-26T19:31:04.284Z,29.47
2017-12-26T19:33:31.834Z,31.20
2017-12-26T19:35:59.401Z,46.70
2017-12-26T19:38:26.993Z,46.77
2017-12-26T19:40:54.560Z,37.60
2017-12-26T19:43:22.130Z,45.97
2017-12-26T19:45:49.744Z,32.27
2017-12-26T19:48:17.312Z,45.13
2017-12-26T19:50:45.012Z,30.03
2017-12-26T19:53:12.787Z,41.13
2017-12-26T19:55:40.338Z,54.43
2017-12-26T19:58:07.910Z,75.93
2017-12-26T20:00:35.514Z,65.93
2017-12-26T20:03:03.069Z,81.53
2017-12-26T20:05:30.651Z,54.73
2017-12-26T20:07:58.318Z,51.57
2017-12-26T20:10:25.914Z,59.33
2017-12-26T20:12:53.478Z,60.67
2017-12-26T20:15:21.044Z,63.57
2017-12-26T20:17:48.653Z,81.30
2017-12-26T20:20:16.223Z,72.53
2017-12-26T20:22:43.787Z,81.27
2017-12-26T20:25:11.406Z,67.70
2017-12-26T20:27:39.018Z,67.37
2017-12-26T20:30:06.593Z,63.53
2017-12-26T20:32:34.239Z,53.80
2017-12-26T20:35:01.783Z,44.10
2017-12-26T20:37:29.332Z,39.13
2017-12-26T20:39:56.919Z,31.10
2017-12-26T20:42:24.484Z,51.93
2017-12-26T20:44:52.058Z,57.50
2017-12-26T20:47:19.665Z,56.40
2017-12-26T20:49:47.214Z,51.77
2017-12-26T20:52:14.770Z,43.00
2017-12-26T20:54:42.366Z,54.67
2017-12-26T20:57:09.915Z,53.83
2017-12-26T20:59:37.471Z,43.27
2017-12-26T21:02:05.077Z,44.13
2017-12-26T21:04:32.637Z,40.17
2017-12-26T21:07:00.214Z,60.67
2017-12-26T21:09:28.265Z,55.07
2017-12-26T21:11:55.834Z,39.70
2017-12-26T21:14:23.422Z,46.17
2017-12-26T21:16:56.629Z,36.47
2017-12-26T21:19:24.292Z,40.73
2017-12-26T21:21:51.879Z,45.77
2017-12-26T21:24:19.648Z,45.30
2017-12-26T21:26:47.213Z,38.83
2017-12-26T21:29:14.762Z,37.17
2017-12-26T21:31:42.369Z,36.10
2017-12-26T21:34:09.946Z,42.63
2017-12-26T21:36:37.531Z,34.60
2017-12-26T21:39:05.179Z,26.50
2017-12-26T21:41:32.764Z,40.10
2017-12-26T21:44:00.383Z,34.10
2017-12-26T21:46:28.025Z,54.87
2017-12-26T21:48:55.584Z,43.57
2017-12-26T21:51:23.161Z,51.63
2017-12-26T21:53:50.813Z,39.17
2017-12-26T21:56:18.395Z,41.87
2017-12-26T21:58:45.967Z,48.87
2017-12-26T22:01:13.566Z,49.57
2017-12-26T22:03:42.562Z,45.07
2017-12-26T22:06:12.426Z,62.90
2017-12-26T22:08:40.833Z,78.83
2017-12-26T22:11:12.639Z,69.27
2017-12-26T22:13:43.485Z,72.60
2017-12-26T22:16:14.985Z,76.10
2017-12-26T22:18:42.887Z,72.43
2017-12-26T22:21:10.469Z,72.23
2017-12-26T22:23:38.061Z,61.13
2017-12-26T22:26:05.655Z,70.30
2017-12-26T22:28:33.257Z,58.97
2017-12-26T22:31:00.866Z,64.17
2017-12-26T22:33:29.173Z,61.57
2017-12-26T22:35:56.740Z,42.50
2017-12-26T22:38:24.293Z,47.40
2017-12-26T22:40:51.876Z,45.10
2017-12-26T22:43:19.437Z,48.93
2017-12-26T22:45:47.014Z,41.00
2017-12-26T22:48:14.598Z,41.00
2017-12-26T22:50:42.160Z,36.70
2017-12-26T22:53:09.735Z,36.23
2017-12-26T22:55:37.396Z,33.17
2017-12-26T22:58:04.973Z,44.47
2017-12-26T23:00:32.531Z,66.13
2017-12-26T23:03:00.133Z,45.50
2017-12-26T23:05:28.975Z,35.87
2017-12-26T23:07:56.641Z,38.87
2017-12-26T23:10:28.164Z,46.10
2017-12-26T23:12:59.099Z,42.30
2017-12-26T23:15:35.063Z,38.40
2017-12-26T23:18:11.301Z,38.30
2017-12-26T23:20:47.268Z,52.57
2017-12-26T23:23:22.954Z,43.83
2017-12-26T23:25:56.248Z,49.80
2017-12-26T23:28:29.470Z,55.83
2017-12-26T23:31:02.550Z,44.63
2017-12-26T23:33:35.787Z,59.70
2017-12-26T23:36:09.075Z,45.37
2017-12-26T23:38:42.088Z,55.80
2017-12-26T23:41:15.319Z,42.20
2017-12-26T23:43:48.425Z,41.77
2017-12-26T23:46:21.560Z,41.23
2017-12-26T23:48:54.707Z,57.83
2017-12-26T23:51:27.797Z,41.53
2017-12-26T23:54:00.768Z,37.30
2017-12-26T23:56:34.015Z,40.70
2017-12-26T23:59:07.204Z,56.60
